Time;durP1;ratioP1;P1;durP2;ratioP2;P2;SDS_P1;SDS_P2;PMS_P1;PMS_P2;Temp;Humidity;BMP_temperature;BMP_pressure;BME280_temperature;BME280_humidity;BME280_pressure;Samples;Min_cycle;Max_cycle;Signal;HPM_P1;HPM_P2
2021/10/23 00:01:37;;;;;;;;;;;13.70;99.90;;;;;;4994308;28;19964;-69
2021/10/23 00:04:03;;;;;;;;;;;13.80;99.90;;;;;;4995607;28;19912;-70
2021/10/23 00:06:28;;;;;;;;;;;13.70;99.90;;;;;;4994196;28;19909;-71
2021/10/23 00:08:54;;;;;;;;;;;13.80;99.90;;;;;;4995430;28;20351;-70
2021/10/23 00:11:20;;;;;;;;;;;13.70;99.90;;;;;;4995412;28;20005;-70
2021/10/23 00:13:46;;;;;;;;;;;13.70;99.90;;;;;;4994103;28;19949;-71
2021/10/23 00:16:12;;;;;;;;;;;13.70;99.90;;;;;;4995156;28;19960;-70
2021/10/23 00:18:38;;;;;;;;;;;13.70;99.90;;;;;;4995286;28;20343;-69
2021/10/23 00:21:04;;;;;;;;;;;13.60;99.90;;;;;;4995184;28;19914;-69
2021/10/23 00:23:29;;;;;;;;;;;13.60;99.90;;;;;;4993805;28;19909;-70
2021/10/23 00:25:55;;;;;;;;;;;13.50;99.90;;;;;;4995431;28;19905;-67
2021/10/23 00:28:21;;;;;;;;;;;13.50;99.90;;;;;;4995073;28;19906;-69
2021/10/23 00:30:47;;;;;;;;;;;13.50;99.90;;;;;;4995324;28;19914;-68
2021/10/23 00:33:13;;;;;;;;;;;13.50;99.90;;;;;;4995049;28;19905;-70
2021/10/23 00:35:38;;;;;;;;;;;13.50;99.90;;;;;;4994942;28;20309;-69
2021/10/23 00:38:04;;;;;;;;;;;13.50;99.90;;;;;;4994900;28;19910;-67
2021/10/23 00:40:30;;;;;;;;;;;13.50;99.90;;;;;;4994816;28;20385;-68
2021/10/23 00:42:58;;;;;;;;;;;13.60;99.90;;;;;;4995148;28;19956;-67
2021/10/23 00:45:25;;;;;;;;;;;13.60;99.90;;;;;;4994788;28;19956;-69
2021/10/23 00:47:51;;;;;;;;;;;13.60;99.90;;;;;;4994744;28;19906;-70
2021/10/23 00:50:17;;;;;;;;;;;13.60;99.90;;;;;;4994693;28;19905;-69
2021/10/23 00:52:43;;;;;;;;;;;13.60;99.90;;;;;;4994722;28;19968;-69
2021/10/23 00:55:09;;;;;;;;;;;13.70;99.90;;;;;;4994587;28;19906;-69
2021/10/23 00:57:35;;;;;;;;;;;13.70;99.90;;;;;;4994615;28;19936;-70
2021/10/23 01:00:01;;;;;;;;;;;13.70;99.90;;;;;;4994478;28;20293;-71
2021/10/23 01:02:26;;;;;;;;;;;13.70;99.90;;;;;;4994505;28;20370;-70
2021/10/23 01:04:52;;;;;;;;;;;13.60;99.90;;;;;;4994484;28;19912;-70
2021/10/23 01:07:18;;;;;;;;;;;13.60;99.90;;;;;;4994144;28;19906;-71
2021/10/23 01:09:44;;;;;;;;;;;13.60;99.90;;;;;;4994386;28;19906;-72
2021/10/23 01:12:10;;;;;;;;;;;13.60;99.90;;;;;;4993061;28;19905;-68
2021/10/23 01:14:36;;;;;;;;;;;13.60;99.90;;;;;;4994401;28;19910;-69
2021/10/23 01:17:02;;;;;;;;;;;13.60;99.90;;;;;;4993916;28;20028;-69
2021/10/23 01:19:38;;;;;;;;;;;13.60;99.90;;;;;;4994365;28;20000;-70
2021/10/23 01:22:04;;;;;;;;;;;13.60;99.90;;;;;;4993248;28;19910;-70
2021/10/23 01:24:30;;;;;;;;;;;13.60;99.90;;;;;;4994299;28;19912;-69
2021/10/23 01:26:56;;;;;;;;;;;13.60;99.90;;;;;;4994198;28;20021;-69
2021/10/23 01:29:22;;;;;;;;;;;13.70;99.90;;;;;;4992960;28;19954;-68
2021/10/23 01:31:50;;;;;;;;;;;13.70;99.90;;;;;;4992842;28;19916;-68
2021/10/23 01:34:17;;;;;;;;;;;13.70;99.90;;;;;;4993352;28;20370;-68
2021/10/23 01:36:45;;;;;;;;;;;13.80;99.90;;;;;;4992802;28;20367;-68
2021/10/23 01:39:11;;;;;;;;;;;13.70;99.90;;;;;;4994037;28;19911;-69
2021/10/23 01:41:38;;;;;;;;;;;13.70;99.90;;;;;;4994055;28;20315;-68
2021/10/23 01:44:05;;;;;;;;;;;13.70;99.90;;;;;;4994090;28;19916;-65
2021/10/23 01:46:31;;;;;;;;;;;13.70;99.90;;;;;;4993740;28;19905;-67
2021/10/23 01:48:56;;;;;;;;;;;13.70;99.90;;;;;;4994256;28;19952;-65
2021/10/23 01:51:22;;;;;;;;;;;13.70;99.90;;;;;;4993677;28;19909;-67
2021/10/23 01:53:48;;;;;;;;;;;13.70;99.90;;;;;;4994009;28;19906;-66
2021/10/23 01:56:13;;;;;;;;;;;13.70;99.90;;;;;;4993670;28;20704;-67
2021/10/23 01:58:39;;;;;;;;;;;13.70;99.90;;;;;;4993925;28;19910;-67
2021/10/23 02:01:05;;;;;;;;;;;13.70;99.90;;;;;;4992578;28;19961;-68
2021/10/23 02:03:30;;;;;;;;;;;13.80;99.90;;;;;;4993959;28;20279;-68
2021/10/23 02:05:56;;;;;;;;;;;13.80;99.90;;;;;;4993825;28;19956;-67
2021/10/23 02:08:22;;;;;;;;;;;13.80;99.90;;;;;;4992271;28;19905;-67
2021/10/23 02:10:48;;;;;;;;;;;13.80;99.90;;;;;;4993554;28;19905;-68
2021/10/23 02:13:13;;;;;;;;;;;13.80;99.90;;;;;;4992506;28;19905;-68
2021/10/23 02:15:39;;;;;;;;;;;13.80;99.90;;;;;;4993745;28;20017;-68
2021/10/23 02:18:07;;;;;;;;;;;13.80;99.90;;;;;;4991936;28;19921;-67
2021/10/23 02:20:34;;;;;;;;;;;13.80;99.90;;;;;;4992349;28;20000;-68
2021/10/23 02:23:00;;;;;;;;;;;13.80;99.90;;;;;;4994024;28;19957;-68
2021/10/23 02:25:26;;;;;;;;;;;13.80;99.90;;;;;;4993706;28;19914;-69
2021/10/23 02:27:52;;;;;;;;;;;13.80;99.90;;;;;;4992070;28;19913;-67
2021/10/23 02:30:18;;;;;;;;;;;13.80;99.90;;;;;;4993351;28;19960;-67
2021/10/23 02:32:43;;;;;;;;;;;13.80;99.90;;;;;;4992290;28;19906;-68
2021/10/23 02:35:09;;;;;;;;;;;13.80;99.90;;;;;;4992402;28;19912;-66
2021/10/23 02:37:36;;;;;;;;;;;13.80;99.90;;;;;;4993565;28;19952;-70
2021/10/23 02:40:02;;;;;;;;;;;13.80;99.90;;;;;;4993461;28;20016;-70
2021/10/23 02:42:28;;;;;;;;;;;13.80;99.90;;;;;;4993515;28;19910;-70
2021/10/23 02:44:54;;;;;;;;;;;13.80;99.90;;;;;;4993838;28;19929;-69
2021/10/23 02:47:19;;;;;;;;;;;13.80;99.90;;;;;;4995576;28;19909;-70
2021/10/23 02:49:45;;;;;;;;;;;13.70;99.90;;;;;;4996934;28;19912;-70
2021/10/23 02:52:11;;;;;;;;;;;13.80;99.90;;;;;;4995587;28;20364;-69
2021/10/23 02:54:36;;;;;;;;;;;13.70;99.90;;;;;;4996926;28;20370;-69
2021/10/23 02:57:02;;;;;;;;;;;13.70;99.90;;;;;;4997150;28;19905;-69
2021/10/23 02:59:28;;;;;;;;;;;13.70;99.90;;;;;;4996721;28;19910;-69
2021/10/23 03:01:53;;;;;;;;;;;13.70;99.90;;;;;;4996754;28;19968;-70
2021/10/23 03:04:19;;;;;;;;;;;13.70;99.90;;;;;;4996748;28;19917;-70
2021/10/23 03:06:45;;;;;;;;;;;13.80;99.90;;;;;;4995287;28;19968;-68
2021/10/23 03:09:14;;;;;;;;;;;13.80;99.90;;;;;;4996593;28;19928;-68
2021/10/23 03:11:40;;;;;;;;;;;13.80;99.90;;;;;;4995302;28;19906;-70
2021/10/23 03:14:07;;;;;;;;;;;13.90;99.90;;;;;;4996588;28;19905;-69
2021/10/23 03:16:33;;;;;;;;;;;13.90;99.90;;;;;;4996346;28;19918;-69
2021/10/23 03:19:04;;;;;;;;;;;13.90;99.90;;;;;;4996347;28;20354;-68
2021/10/23 03:21:30;;;;;;;;;;;13.90;99.90;;;;;;4996432;28;20271;-68
2021/10/23 03:23:55;;;;;;;;;;;13.90;99.90;;;;;;4996410;28;20404;-69
2021/10/23 03:26:21;;;;;;;;;;;14.00;99.90;;;;;;4996280;28;19960;-69
2021/10/23 03:28:49;;;;;;;;;;;14.00;99.90;;;;;;4996253;28;19922;-68
2021/10/23 03:31:15;;;;;;;;;;;14.00;99.90;;;;;;4994849;28;20385;-69
2021/10/23 03:33:41;;;;;;;;;;;14.00;99.90;;;;;;4996254;28;19956;-70
2021/10/23 03:36:07;;;;;;;;;;;13.90;99.90;;;;;;4995844;28;19968;-69
2021/10/23 03:38:32;;;;;;;;;;;13.90;99.90;;;;;;4996413;28;19956;-69
2021/10/23 03:40:58;;;;;;;;;;;13.80;99.90;;;;;;4995939;28;19949;-67
2021/10/23 03:43:24;;;;;;;;;;;13.80;99.90;;;;;;4994647;28;19914;-68
2021/10/23 03:45:49;;;;;;;;;;;13.70;99.90;;;;;;4994600;28;19959;-69
2021/10/23 03:48:15;;;;;;;;;;;13.60;99.90;;;;;;4995910;28;19959;-69
2021/10/23 03:50:41;;;;;;;;;;;13.60;99.90;;;;;;4995810;28;19906;-69
2021/10/23 03:53:07;;;;;;;;;;;13.50;99.90;;;;;;4994510;28;19950;-69
2021/10/23 03:55:32;;;;;;;;;;;13.40;99.90;;;;;;4994496;28;20374;-69
2021/10/23 03:57:58;;;;;;;;;;;13.40;99.90;;;;;;4995243;28;19906;-70
2021/10/23 04:00:24;;;;;;;;;;;13.30;99.90;;;;;;4995552;28;20350;-71
2021/10/23 04:02:49;;;;;;;;;;;13.30;99.90;;;;;;4995889;28;19909;-69
2021/10/23 04:05:15;;;;;;;;;;;13.20;99.90;;;;;;4994252;28;19905;-70
2021/10/23 04:07:41;;;;;;;;;;;13.10;99.90;;;;;;4995229;28;19906;-68
2021/10/23 04:10:07;;;;;;;;;;;13.00;99.90;;;;;;4995422;28;19932;-68
2021/10/23 04:12:33;;;;;;;;;;;13.00;99.90;;;;;;4995410;28;19906;-70
2021/10/23 04:15:02;;;;;;;;;;;13.00;99.90;;;;;;4995399;28;19905;-70
2021/10/23 04:17:28;;;;;;;;;;;12.90;99.90;;;;;;4994851;28;19918;-69
2021/10/23 04:19:54;;;;;;;;;;;12.80;99.90;;;;;;4995184;28;19910;-69
2021/10/23 04:22:19;;;;;;;;;;;12.80;99.90;;;;;;4995171;28;20004;-68
2021/10/23 04:24:45;;;;;;;;;;;12.70;99.90;;;;;;4994934;28;19910;-68
2021/10/23 04:27:11;;;;;;;;;;;12.70;99.90;;;;;;4993780;28;19910;-68
2021/10/23 04:29:36;;;;;;;;;;;12.70;99.90;;;;;;4993778;28;19913;-70
2021/10/23 04:32:02;;;;;;;;;;;12.70;99.90;;;;;;4995070;28;20044;-69
2021/10/23 04:34:28;;;;;;;;;;;12.60;99.90;;;;;;4994776;28;20017;-70
2021/10/23 04:36:54;;;;;;;;;;;12.50;99.90;;;;;;4994952;28;20024;-69
2021/10/23 04:39:20;;;;;;;;;;;12.50;99.90;;;;;;4994837;28;20141;-71
2021/10/23 04:41:46;;;;;;;;;;;12.50;99.90;;;;;;4994913;28;20480;-69
2021/10/23 04:44:11;;;;;;;;;;;12.40;99.90;;;;;;4994895;28;20008;-69
2021/10/23 04:46:37;;;;;;;;;;;12.30;99.90;;;;;;4993492;28;20366;-70
2021/10/23 04:49:03;;;;;;;;;;;12.20;99.90;;;;;;4994763;28;20317;-71
2021/10/23 04:51:28;;;;;;;;;;;12.20;99.90;;;;;;4995030;28;20262;-69
2021/10/23 04:53:54;;;;;;;;;;;12.10;99.90;;;;;;4994692;28;19964;-71
2021/10/23 04:56:20;;;;;;;;;;;12.00;99.90;;;;;;4994696;28;19906;-69
2021/10/23 04:58:45;;;;;;;;;;;11.90;99.90;;;;;;4994615;28;19905;-71
2021/10/23 05:01:11;;;;;;;;;;;11.80;99.90;;;;;;4994466;28;19909;-71
2021/10/23 05:03:37;;;;;;;;;;;11.90;99.90;;;;;;4993251;28;20480;-70
2021/10/23 05:06:03;;;;;;;;;;;11.80;99.90;;;;;;4994558;28;20391;-66
2021/10/23 05:08:29;;;;;;;;;;;11.80;99.90;;;;;;4992857;28;19905;-69
2021/10/23 05:10:55;;;;;;;;;;;;;;;;;;4993832;28;19925;-69
2021/10/23 05:13:21;;;;;;;;;;;;;;;;;;4994361;28;19928;-68
2021/10/23 05:15:47;;;;;;;;;;;;;;;;;;4993848;28;19906;-67
2021/10/23 05:18:13;;;;;;;;;;;;;;;;;;4992868;28;19910;-66
2021/10/23 05:20:39;;;;;;;;;;;;;;;;;;4987931;28;19910;-69
2021/10/23 05:23:05;;;;;;;;;;;;;;;;;;4974534;28;19918;-69
2021/10/23 05:25:31;;;;;;;;;;;;;;;;;;4974784;28;19906;-65
2021/10/23 05:27:57;;;;;;;;;;;;;;;;;;4974309;28;19993;-69
2021/10/23 05:30:23;;;;;;;;;;;;;;;;;;4974601;28;20056;-68
2021/10/23 05:32:49;;;;;;;;;;;;;;;;;;4974305;28;20351;-68
2021/10/23 05:35:15;;;;;;;;;;;;;;;;;;4973355;28;19910;-69
2021/10/23 05:37:41;;;;;;;;;;;;;;;;;;4972999;28;19910;-68
2021/10/23 05:40:07;;;;;;;;;;;;;;;;;;4972918;28;19910;-68
2021/10/23 05:42:33;;;;;;;;;;;;;;;;;;4974564;28;19917;-68
2021/10/23 05:44:59;;;;;;;;;;;;;;;;;;4974847;28;19906;-67
2021/10/23 05:47:25;;;;;;;;;;;;;;;;;;4974439;28;19933;-67
2021/10/23 05:49:51;;;;;;;;;;;;;;;;;;4974418;28;19906;-68
2021/10/23 05:52:17;;;;;;;;;;;;;;;;;;4974442;28;20385;-65
2021/10/23 05:54:43;;;;;;;;;;;;;;;;;;4973215;28;20475;-66
2021/10/23 05:57:09;;;;;;;;;;;;;;;;;;4974390;28;19906;-67
2021/10/23 05:59:46;;;;;;;;;;;;;;;;;;4973061;28;20042;-67
2021/10/23 06:02:24;;;;;;;;;;;;;;;;;;4974360;28;19910;-66
2021/10/23 06:04:50;;;;;;;;;;;;;;;;;;4974463;28;20001;-68
2021/10/23 06:07:16;;;;;;;;;;;;;;;;;;4974386;28;19906;-67
2021/10/23 06:09:42;;;;;;;;;;;;;;;;;;4974311;28;19913;-67
2021/10/23 06:12:08;;;;;;;;;;;;;;;;;;4974235;28;19910;-66
2021/10/23 06:14:34;;;;;;;;;;;;;;;;;;4973994;28;20336;-68
2021/10/23 06:17:01;;;;;;;;;;;;;;;;;;4972583;28;19964;-67
2021/10/23 06:19:27;;;;;;;;;;;;;;;;;;4974153;28;19921;-67
2021/10/23 06:21:53;;;;;;;;;;;;;;;;;;4976973;28;19917;-66
2021/10/23 06:24:19;;;;;;;;;;;;;;;;;;4978229;28;19913;-67
2021/10/23 06:26:45;;;;;;;;;;;;;;;;;;4976423;28;19913;-69
2021/10/23 06:29:11;;;;;;;;;;;;;;;;;;4976553;28;19912;-68
2021/10/23 06:31:37;;;;;;;;;;;;;;;;;;4977610;28;19906;-69
2021/10/23 06:34:03;;;;;;;;;;;;;;;;;;4977568;28;19956;-70
2021/10/23 06:36:29;;;;;;;;;;;;;;;;;;4977657;28;19938;-70
2021/10/23 06:38:55;;;;;;;;;;;;;;;;;;4977929;28;19910;-69
2021/10/23 06:41:21;;;;;;;;;;;;;;;;;;4976219;28;19918;-70
2021/10/23 06:43:47;;;;;;;;;;;;;;;;;;4975521;28;20267;-71
2021/10/23 06:46:13;;;;;;;;;;;;;;;;;;4988453;28;20274;-71
2021/10/23 06:48:39;;;;;;;;;;;;;;;;;;4996510;28;19906;-69
2021/10/23 06:51:05;;;;;;;;;;;;;;;;;;4996812;28;20049;-70
2021/10/23 06:53:31;;;;;;;;;;;;;;;;;;4996754;28;20004;-71
2021/10/23 06:55:57;;;;;;;;;;;;;;;;;;4997070;28;20000;-71
2021/10/23 06:58:23;;;;;;;;;;;;;;;;;;4996717;28;20052;-69
2021/10/23 07:00:49;;;;;;;;;;;;;;;;;;4996520;28;19963;-70
2021/10/23 07:03:15;;;;;;;;;;;;;;;;;;4996597;28;19957;-70
2021/10/23 07:05:41;;;;;;;;;;;;;;;;;;4995290;28;19948;-71
2021/10/23 07:08:08;;;;;;;;;;;;;;;;;;4995182;28;19913;-72
2021/10/23 07:10:33;;;;;;;;;;;;;;;;;;4996426;28;19952;-72
2021/10/23 07:13:02;;;;;;;;;;;;;;;;;;4996310;28;19909;-70
2021/10/23 07:15:28;;;;;;;;;;;;;;;;;;4996184;28;19910;-70
2021/10/23 07:17:54;;;;;;;;;;;;;;;;;;4994966;28;19929;-70
2021/10/23 07:20:21;;;;;;;;;;;;;;;;;;4996362;28;19909;-72
2021/10/23 07:22:49;;;;;;;;;;;;;;;;;;4996311;28;19988;-70
2021/10/23 07:25:15;;;;;;;;;;;;;;;;;;4992614;28;19917;-72
2021/10/23 07:27:41;;;;;;;;;;;;;;;;;;4996502;28;20274;-70
2021/10/23 07:30:09;;;;;;;;;;;;;;;;;;4994867;28;19949;-70
2021/10/23 07:32:35;;;;;;;;;;;;;;;;;;4995402;28;19937;-70
2021/10/23 07:35:01;;;;;;;;;;;;;;;;;;4996074;28;19905;-70
2021/10/23 07:37:27;;;;;;;;;;;;;;;;;;4994752;28;19909;-71
2021/10/23 07:39:53;;;;;;;;;;;;;;;;;;4995954;28;19956;-70
2021/10/23 07:42:19;;;;;;;;;;;;;;;;;;4994680;28;20319;-71
2021/10/23 07:44:45;;;;;;;;;;;;;;;;;;4995946;28;20275;-71
2021/10/23 07:47:12;;;;;;;;;;;;;;;;;;4995955;28;19905;-71
2021/10/23 07:49:38;;;;;;;;;;;;;;;;;;4995825;28;20004;-71
2021/10/23 07:52:04;;;;;;;;;;;;;;;;;;4995811;28;19956;-70
2021/10/23 07:54:30;;;;;;;;;;;;;;;;;;4995732;28;19909;-71
2021/10/23 07:56:59;;;;;;;;;;;;;;;;;;4995325;28;19910;-71
2021/10/23 07:59:31;;;;;;;;;;;;;;;;;;4995581;28;19965;-70
2021/10/23 08:01:57;;;;;;;;;;;;;;;;;;4994216;28;20358;-73
2021/10/23 08:04:25;;;;;;;;;;;;;;;;;;4994524;28;20319;-71
2021/10/23 08:06:51;;;;;;;;;;;;;;;;;;4995515;28;20289;-70
2021/10/23 08:09:18;;;;;;;;;;;;;;;;;;4995448;28;20373;-71
2021/10/23 08:11:44;;;;;;;;;;;;;;;;;;4995378;28;19905;-70
2021/10/23 08:14:10;;;;;;;;;;;;;;;;;;4995191;28;19906;-71
2021/10/23 08:16:36;;;;;;;;;;;;;;;;;;4995070;28;20386;-70
2021/10/23 08:19:02;;;;;;;;;;;;;;;;;;4993988;28;19956;-71
2021/10/23 08:21:30;;;;;;;;;;;;;;;;;;4995207;28;19967;-72
2021/10/23 08:23:56;;;;;;;;;;;;;;;;;;4993899;28;19906;-73
2021/10/23 08:26:23;;;;;;;;;;;;;;;;;;4994879;28;19906;-72
2021/10/23 08:28:49;;;;;;;;;;;;;;;;;;4995026;28;19906;-71
2021/10/23 08:31:15;;;;;;;;;;;;;;;;;;4993757;28;19910;-71
2021/10/23 08:33:41;;;;;;;;;;;;;;;;;;4993697;28;20445;-71
2021/10/23 08:36:07;;;;;;;;;;;;;;;;;;4993661;28;19906;-75
2021/10/23 08:38:33;;;;;;;;;;;;;;;;;;4993587;28;20338;-72
2021/10/23 08:40:59;;;;;;;;;;;;;;;;;;4993488;28;19937;-71
2021/10/23 08:43:25;;;;;;;;;;;;;;;;;;4994784;28;19913;-70
2021/10/23 08:45:52;;;;;;;;;;;;;;;;;;4994745;28;19910;-72
2021/10/23 08:48:18;;;;;;;;;;;;;;;;;;4994743;28;19910;-70
2021/10/23 08:50:44;;;;;;;;;;;;;;;;;;4993456;28;20266;-70
2021/10/23 08:53:10;;;;;;;;;;;;;;;;;;4993287;28;19921;-69
2021/10/23 08:55:36;;;;;;;;;;;;;;;;;;4994316;28;20355;-71
2021/10/23 08:58:02;;;;;;;;;;;;;;;;;;4994668;28;19905;-70
2021/10/23 09:00:28;;;;;;;;;;;;;;;;;;4994509;28;19952;-67
2021/10/23 09:02:55;;;;;;;;;;;;;;;;;;4994555;28;19909;-68
2021/10/23 09:05:22;;;;;;;;;;;;;;;;;;4994495;28;19937;-66
2021/10/23 09:07:48;;;;;;;;;;;;;;;;;;4994466;28;19913;-67
2021/10/23 09:10:14;;;;;;;;;;;;;;;;;;4993093;28;19910;-72
2021/10/23 09:12:40;;;;;;;;;;;;;;;;;;4992796;28;19912;-70
2021/10/23 09:15:06;;;;;;;;;;;;;;;;;;4994361;28;19910;-68
2021/10/23 09:17:32;;;;;;;;;;;;;;;;;;4994397;28;19918;-69
2021/10/23 09:19:58;;;;;;;;;;;;;;;;;;4994170;28;19972;-69
2021/10/23 09:22:24;;;;;;;;;;;;;;;;;;4991781;28;20281;-68
2021/10/23 09:24:50;;;;;;;;;;;;;;;;;;4993127;28;20370;-67
2021/10/23 09:27:16;;;;;;;;;;;;;;;;;;4994214;28;19913;-69
2021/10/23 09:29:42;;;;;;;;;;;;;;;;;;4992748;28;19912;-69
2021/10/23 09:32:08;;;;;;;;;;;;;;;;;;4993821;28;20331;-68
2021/10/23 09:34:34;;;;;;;;;;;;;;;;;;4992830;28;20004;-68
2021/10/23 09:37:03;;;;;;;;;;;;;;;;;;4993819;28;20022;-70
2021/10/23 09:39:29;;;;;;;;;;;;;;;;;;4994052;28;20373;-69
2021/10/23 09:41:55;;;;;;;;;;;;;;;;;;4994071;28;20138;-70
2021/10/23 09:44:21;;;;;;;;;;;;;;;;;;4993738;28;19960;-70
2021/10/23 09:46:47;;;;;;;;;;;;;;;;;;4994064;28;19906;-70
2021/10/23 09:49:13;;;;;;;;;;;;;;;;;;4993956;28;19949;-69
2021/10/23 09:51:39;;;;;;;;;;;;;;;;;;4992621;28;19912;-70
2021/10/23 09:54:08;;;;;;;;;;;;;;;;;;4993960;28;19910;-68
2021/10/23 09:56:34;;;;;;;;;;;;;;;;;;4996676;28;20348;-69
2021/10/23 09:59:00;;;;;;;;;;;;;;;;;;4997895;28;19905;-68
2021/10/23 10:01:26;;;;;;;;;;;;;;;;;;4997791;28;19972;-69
2021/10/23 10:03:53;;;;;;;;;;;;;;;;;;4997774;28;20029;-68
2021/10/23 10:06:20;;;;;;;;;;;;;;;;;;4997782;28;20359;-68
2021/10/23 10:08:46;;;;;;;;;;;;;;;;;;4996465;28;20008;-69
2021/10/23 10:11:12;;;;;;;;;;;;;;;;;;4997449;28;19999;-69
2021/10/23 10:13:38;;;;;;;;;;;;;;;;;;4997559;28;19917;-69
2021/10/23 10:16:04;;;;;;;;;;;;;;;;;;4995305;28;19918;-68
2021/10/23 10:18:31;;;;;;;;;;;;;;;;;;4996346;28;19905;-69
2021/10/23 10:20:57;;;;;;;;;;;;;;;;;;4997507;28;19909;-70
2021/10/23 10:23:23;;;;;;;;;;;;;;;;;;4997506;28;19914;-68
2021/10/23 10:25:50;;;;;;;;;;;;;;;;;;4996113;28;19910;-68
2021/10/23 10:28:17;;;;;;;;;;;;;;;;;;4996072;28;19912;-68
2021/10/23 10:30:45;;;;;;;;;;;;;;;;;;4997335;28;19928;-68
2021/10/23 10:33:11;;;;;;;;;;;;;;;;;;4996897;28;20252;-69
2021/10/23 10:38:23;;;;;;;;;;;;;;;;;;4997197;28;19956;-70
2021/10/23 10:43:58;;;;;;;;;;;12.20;99.90;;;;;;4970905;28;19957;-68
2021/10/23 10:46:44;;;;;;;;;;;12.20;99.90;;;;;;4951510;29;19967;-68
2021/10/23 10:49:29;;;;;;;;;;;12.30;99.90;;;;;;4954638;29;20000;-67
2021/10/23 10:51:55;;;;;;;;;;;12.30;99.90;;;;;;4951905;28;20182;-69
2021/10/23 10:54:20;;;;;;;;;;;12.30;99.90;;;;;;4955321;29;20348;-69
2021/10/23 10:56:48;;;;;;;;;;;12.30;99.90;;;;;;4955781;29;20379;-67
2021/10/23 10:59:33;;;;;;;;;;;12.30;99.90;;;;;;4955279;29;19911;-67
2021/10/23 11:02:06;;;;;;;;;;;12.20;99.90;;;;;;4954838;29;20036;-67
2021/10/23 11:04:32;;;;;;;;;;;12.20;99.90;;;;;;4956572;28;20352;-67
2021/10/23 11:06:58;;;;;;;;;;;12.10;99.90;;;;;;4957326;28;19961;-67
2021/10/23 11:09:29;;;;;;;;;;;12.10;99.90;;;;;;4974427;28;19906;-70
2021/10/23 11:11:57;;;;;;;;;;;12.10;99.90;;;;;;4974361;28;19972;-70
2021/10/23 11:14:30;;;;;;;;;;;12.20;99.90;;;;;;4971051;28;19914;-66
2021/10/23 11:16:57;;;;;;;;;;;12.40;99.90;;;;;;4954610;29;19940;-67
2021/10/23 11:19:23;;;;;;;;;;;12.60;99.90;;;;;;4946014;28;19910;-69
2021/10/23 11:21:53;;;;;;;;;;;12.70;99.90;;;;;;4976396;28;19910;-69
2021/10/23 11:24:18;;;;;;;;;;;12.80;99.90;;;;;;4976710;28;19996;-67
2021/10/23 11:26:45;;;;;;;;;;;12.80;99.90;;;;;;4975930;28;20312;-67
2021/10/23 11:29:18;;;;;;;;;;;12.80;99.90;;;;;;4976544;28;19952;-69
2021/10/23 11:31:44;;;;;;;;;;;12.80;99.90;;;;;;4976468;28;19910;-68
2021/10/23 11:34:18;;;;;;;;;;;12.80;99.90;;;;;;4976209;28;19912;-69
2021/10/23 11:36:44;;;;;;;;;;;12.80;99.90;;;;;;4976173;28;19910;-68
2021/10/23 11:39:18;;;;;;;;;;;12.70;99.90;;;;;;4976259;28;19917;-67
2021/10/23 11:41:44;;;;;;;;;;;12.70;99.90;;;;;;4974798;28;19914;-68
2021/10/23 11:44:09;;;;;;;;;;;12.80;99.90;;;;;;4976083;28;19910;-69
2021/10/23 11:46:36;;;;;;;;;;;12.80;99.90;;;;;;4975041;28;19917;-66
2021/10/23 11:49:02;;;;;;;;;;;12.80;99.90;;;;;;4976328;28;19906;-70
2021/10/23 11:51:28;;;;;;;;;;;13.00;99.90;;;;;;4976181;28;19906;-70
2021/10/23 11:54:05;;;;;;;;;;;13.10;99.90;;;;;;4974727;28;20040;-67
2021/10/23 11:56:31;;;;;;;;;;;13.40;99.90;;;;;;4974911;28;19917;-68
2021/10/23 11:58:58;;;;;;;;;;;13.60;99.90;;;;;;4976199;28;19906;-69
2021/10/23 12:01:27;;;;;;;;;;;13.40;99.90;;;;;;4976008;28;19910;-69
2021/10/23 12:04:11;;;;;;;;;;;13.30;99.90;;;;;;4975846;28;19910;-69
2021/10/23 12:06:40;;;;;;;;;;;12.90;99.90;;;;;;4961065;28;19918;-68
2021/10/23 12:09:18;;;;;;;;;;;13.20;99.90;;;;;;4964490;28;19928;-68
2021/10/23 12:11:44;;;;;;;;;;;13.20;99.90;;;;;;4960579;28;19906;-68
2021/10/23 12:14:11;;;;;;;;;;;13.10;99.40;;;;;;4956121;28;19933;-68
2021/10/23 12:16:47;;;;;;;;;;;13.10;98.60;;;;;;4962994;28;19921;-69
2021/10/23 12:19:21;;;;;;;;;;;13.00;99.90;;;;;;4985354;28;19937;-69
2021/10/23 12:21:48;;;;;;;;;;;13.00;99.90;;;;;;4980629;28;20279;-68
2021/10/23 12:24:18;;;;;;;;;;;13.00;97.90;;;;;;4976455;28;19913;-67
2021/10/23 12:26:59;;;;;;;;;;;12.80;99.30;;;;;;4980660;28;20346;-68
2021/10/23 12:29:31;;;;;;;;;;;12.90;98.60;;;;;;4989118;28;19912;-70
2021/10/23 12:31:57;;;;;;;;;;;12.90;99.90;;;;;;4994680;28;19910;-71
2021/10/23 12:34:24;;;;;;;;;;;12.80;98.90;;;;;;4993501;28;19910;-73
2021/10/23 12:36:50;;;;;;;;;;;12.80;98.50;;;;;;4994776;28;20354;-73
2021/10/23 12:39:17;;;;;;;;;;;12.90;98.20;;;;;;4993403;28;19956;-72
2021/10/23 12:41:43;;;;;;;;;;;12.90;98.90;;;;;;4994424;28;19945;-70
2021/10/23 12:44:11;;;;;;;;;;;12.90;99.30;;;;;;4994666;28;19949;-70
2021/10/23 12:46:37;;;;;;;;;;;12.70;98.90;;;;;;4994681;28;19952;-70
2021/10/23 12:49:02;;;;;;;;;;;12.80;99.50;;;;;;4994009;28;19909;-71
2021/10/23 12:51:31;;;;;;;;;;;12.70;99.90;;;;;;4994684;28;19906;-68
2021/10/23 12:53:57;;;;;;;;;;;12.60;99.60;;;;;;4994489;28;19906;-70
2021/10/23 12:56:23;;;;;;;;;;;12.50;99.10;;;;;;4993303;28;20317;-69
2021/10/23 12:58:49;;;;;;;;;;;12.40;99.80;;;;;;4994858;28;19912;-70
2021/10/23 13:01:15;;;;;;;;;;;12.50;99.90;;;;;;4994308;28;19921;-71
2021/10/23 13:03:41;;;;;;;;;;;12.50;99.80;;;;;;4992829;28;19910;-70
2021/10/23 13:06:09;;;;;;;;;;;12.50;99.40;;;;;;4994287;28;20060;-72
2021/10/23 13:08:35;;;;;;;;;;;12.60;99.30;;;;;;4993814;28;20290;-69
2021/10/23 13:11:00;;;;;;;;;;;12.60;99.50;;;;;;4993568;28;19909;-69
2021/10/23 13:13:27;;;;;;;;;;;12.60;99.70;;;;;;4992773;28;19910;-68
2021/10/23 13:15:53;;;;;;;;;;;12.60;99.80;;;;;;4993191;28;20355;-69
2021/10/23 13:18:18;;;;;;;;;;;12.60;99.00;;;;;;4993121;28;19952;-70
2021/10/23 13:20:44;;;;;;;;;;;12.60;99.90;;;;;;4994235;28;20318;-71
2021/10/23 13:23:10;;;;;;;;;;;12.60;99.50;;;;;;4993015;28;19910;-70
2021/10/23 13:25:36;;;;;;;;;;;12.60;99.20;;;;;;4994270;28;19918;-70
2021/10/23 13:28:02;;;;;;;;;;;12.60;98.50;;;;;;4992931;28;19913;-71
2021/10/23 13:30:27;;;;;;;;;;;12.60;99.00;;;;;;4992189;28;19906;-68
2021/10/23 13:32:53;;;;;;;;;;;12.50;98.90;;;;;;4994212;28;19906;-70
2021/10/23 13:35:18;;;;;;;;;;;12.60;99.90;;;;;;4994120;28;19933;-71
2021/10/23 13:37:44;;;;;;;;;;;12.50;99.90;;;;;;4994119;28;19906;-68
2021/10/23 13:40:10;;;;;;;;;;;12.60;99.90;;;;;;4976410;28;20013;-72
2021/10/23 13:42:36;;;;;;;;;;;12.70;99.30;;;;;;4992628;28;19914;-70
2021/10/23 13:45:02;;;;;;;;;;;12.60;99.90;;;;;;4992388;28;20325;-71
2021/10/23 13:47:27;;;;;;;;;;;12.50;99.90;;;;;;4993825;28;20373;-69
2021/10/23 13:49:53;;;;;;;;;;;12.40;99.90;;;;;;4994033;28;19909;-69
2021/10/23 13:52:19;;;;;;;;;;;12.30;99.90;;;;;;4993873;28;19909;-69
2021/10/23 13:54:44;;;;;;;;;;;12.30;99.90;;;;;;4993614;28;19906;-69
2021/10/23 13:57:10;;;;;;;;;;;12.20;99.90;;;;;;4992545;28;19906;-72
2021/10/23 13:59:36;;;;;;;;;;;12.20;99.90;;;;;;4993749;28;19905;-71
2021/10/23 14:02:03;;;;;;;;;;;12.10;99.90;;;;;;4993832;28;20036;-70
2021/10/23 14:04:29;;;;;;;;;;;12.10;99.90;;;;;;4994097;28;20286;-68
2021/10/23 14:06:54;;;;;;;;;;;12.00;99.90;;;;;;4993746;28;19906;-72
2021/10/23 14:09:20;;;;;;;;;;;12.00;99.90;;;;;;4993820;28;19921;-69
2021/10/23 14:11:47;;;;;;;;;;;11.90;99.90;;;;;;4993746;28;19913;-69
2021/10/23 14:14:13;;;;;;;;;;;11.90;99.90;;;;;;4993664;28;19912;-71
2021/10/23 14:16:39;;;;;;;;;;;11.80;99.90;;;;;;4993870;28;19922;-70
2021/10/23 14:19:05;;;;;;;;;;;11.80;99.90;;;;;;4993251;28;19984;-70
2021/10/23 14:21:30;;;;;;;;;;;11.80;99.90;;;;;;4993666;28;20020;-70
2021/10/23 14:23:56;;;;;;;;;;;11.80;99.90;;;;;;4993697;28;19930;-70
2021/10/23 14:26:22;;;;;;;;;;;11.80;99.90;;;;;;4977867;28;19906;-71
2021/10/23 14:28:49;;;;;;;;;;;11.80;99.90;;;;;;4973721;28;19954;-71
2021/10/23 14:31:18;;;;;;;;;;;11.80;99.90;;;;;;4972883;28;19906;-70
2021/10/23 14:33:45;;;;;;;;;;;11.70;99.90;;;;;;4974173;28;19906;-70
2021/10/23 14:36:11;;;;;;;;;;;11.70;99.90;;;;;;4974022;28;19906;-71
2021/10/23 14:38:37;;;;;;;;;;;11.70;99.90;;;;;;4972726;28;20006;-70
2021/10/23 14:41:04;;;;;;;;;;;11.70;99.90;;;;;;4972653;28;19910;-72
2021/10/23 14:43:30;;;;;;;;;;;11.70;99.90;;;;;;4993446;28;19917;-71
2021/10/23 14:45:55;;;;;;;;;;;11.60;99.90;;;;;;4996710;28;19914;-72
2021/10/23 14:48:22;;;;;;;;;;;11.60;99.90;;;;;;4995581;28;19953;-72
2021/10/23 14:50:47;;;;;;;;;;;11.60;99.90;;;;;;4995599;28;19906;-70
2021/10/23 14:53:13;;;;;;;;;;;11.50;99.90;;;;;;4995578;28;19913;-72
2021/10/23 14:55:38;;;;;;;;;;;11.50;99.90;;;;;;4995245;28;19907;-71
2021/10/23 14:58:05;;;;;;;;;;;11.40;99.90;;;;;;4996723;28;19906;-71
2021/10/23 15:00:30;;;;;;;;;;;11.50;99.90;;;;;;4996552;28;20369;-72
2021/10/23 15:02:56;;;;;;;;;;;11.50;99.90;;;;;;4995373;28;19913;-73
2021/10/23 15:05:21;;;;;;;;;;;11.60;99.90;;;;;;4996668;28;19916;-73
2021/10/23 15:07:47;;;;;;;;;;;12.00;99.90;;;;;;4996580;28;20421;-72